Time;durP1;ratioP1;P1;durP2;ratioP2;P2;SDS_P1;SDS_P2;PMS_P1;PMS_P2;Temp;Humidity;BMP_temperature;BMP_pressure;BME280_temperature;BME280_humidity;BME280_pressure;Samples;Min_cycle;Max_cycle;Signal;HPM_P1;HPM_P2
2021/12/01 00:01:56;;;;;;;18.17;6.65;;;;;;;8.91;100.00;100164.78;5090552;28;20042;-76
2021/12/01 00:04:22;;;;;;;18.10;6.45;;;;;;;8.91;100.00;100172.53;5087003;28;20024;-77
2021/12/01 00:06:47;;;;;;;13.23;5.80;;;;;;;8.89;100.00;100163.94;5083862;28;20063;-77
2021/12/01 00:09:12;;;;;;;15.55;6.07;;;;;;;8.89;100.00;100163.94;5079769;28;20063;-77
2021/12/01 00:11:38;;;;;;;11.90;5.00;;;;;;;8.87;100.00;100152.84;5075161;28;20434;-77
2021/12/01 00:14:03;;;;;;;15.45;5.57;;;;;;;8.85;100.00;100134.78;5088665;28;20274;-77
2021/12/01 00:16:28;;;;;;;11.70;5.60;;;;;;;8.86;100.00;100127.88;5090981;28;20050;-77
2021/12/01 00:18:54;;;;;;;13.52;5.30;;;;;;;8.89;100.00;100138.09;5091844;28;20024;-76
2021/12/01 00:21:19;;;;;;;12.00;4.88;;;;;;;8.86;100.00;100118.38;5081842;28;20042;-77
2021/12/01 00:23:44;;;;;;;12.23;5.15;;;;;;;8.89;100.00;100114.84;5081153;28;20183;-77
2021/12/01 00:26:09;;;;;;;11.63;4.93;;;;;;;8.85;100.00;100088.25;5089626;28;20034;-77
2021/12/01 00:28:36;;;;;;;12.40;5.13;;;;;;;8.84;100.00;100088.28;5065262;28;20029;-78
2021/12/01 00:31:02;;;;;;;12.50;5.13;;;;;;;8.85;100.00;100071.91;5077365;28;20020;-77
2021/12/01 00:33:27;;;;;;;10.02;4.55;;;;;;;8.86;100.00;100063.28;5088484;28;20028;-77
2021/12/01 00:35:55;;;;;;;11.27;4.95;;;;;;;8.83;100.00;100059.03;5091055;28;20386;-77
2021/12/01 00:38:22;;;;;;;10.82;4.45;;;;;;;8.84;100.00;100045.22;5090666;28;20038;-78
2021/12/01 00:40:48;;;;;;;10.40;4.47;;;;;;;8.81;100.00;100042.72;5078295;28;20461;-78
2021/12/01 00:43:18;;;;;;;8.73;4.00;;;;;;;8.82;100.00;100041.81;5074919;28;20036;-78
2021/12/01 00:45:50;;;;;;;10.10;4.50;;;;;;;8.82;100.00;100039.25;5090267;28;20024;-78
2021/12/01 00:48:19;;;;;;;10.38;4.30;;;;;;;8.81;100.00;100028.94;5070861;28;20024;-77
2021/12/01 00:50:45;;;;;;;10.45;4.25;;;;;;;8.82;100.00;100030.63;5078914;28;20040;-78
2021/12/01 00:53:11;;;;;;;10.20;4.63;;;;;;;8.80;100.00;100038.47;5072804;28;20023;-78
2021/12/01 00:55:37;;;;;;;11.13;4.80;;;;;;;8.80;100.00;100024.69;5088055;28;20055;-78
2021/12/01 00:58:03;;;;;;;9.77;4.50;;;;;;;8.81;100.00;100019.44;5075764;28;20254;-78
2021/12/01 01:00:30;;;;;;;9.40;4.25;;;;;;;8.80;100.00;100017.78;5074053;28;20016;-78
2021/12/01 01:02:59;;;;;;;9.60;4.15;;;;;;;8.78;100.00;100013.53;5075915;28;20221;-78
2021/12/01 01:05:25;;;;;;;10.95;4.30;;;;;;;8.78;100.00;100016.13;5076142;28;20502;-78
2021/12/01 01:07:50;;;;;;;11.38;4.70;;;;;;;8.78;100.00;100003.22;5079892;28;20047;-78
2021/12/01 01:10:34;;;;;;;10.55;4.90;;;;;;;8.77;100.00;99996.34;5077213;28;20034;-78
2021/12/01 01:18:34;;;;;;;10.82;4.57;;;;;;;8.77;100.00;99978.25;5087413;28;20112;-78
2021/12/01 01:21:01;;;;;;;11.57;4.55;;;;;;;8.71;100.00;99969.81;5074311;28;20165;-78
2021/12/01 01:23:29;;;;;;;9.95;3.95;;;;;;;8.73;100.00;99974.94;5080618;28;20059;-79
2021/12/01 01:25:54;;;;;;;10.02;4.57;;;;;;;8.71;100.00;99969.81;5084135;28;20016;-79
2021/12/01 01:28:20;;;;;;;10.88;4.28;;;;;;;8.67;100.00;99960.44;5075940;28;20162;-78
2021/12/01 01:30:45;;;;;;;11.23;4.80;;;;;;;8.67;100.00;99954.44;5074591;28;20028;-79
2021/12/01 01:33:10;;;;;;;13.00;5.78;;;;;;;8.66;100.00;99952.75;5078470;28;20365;-78
2021/12/01 01:35:35;;;;;;;12.77;5.57;;;;;;;8.61;100.00;99955.47;5088816;28;20370;-79
2021/12/01 01:38:01;;;;;;;12.75;5.57;;;;;;;8.61;100.00;99946.88;5087521;28;20088;-79
2021/12/01 01:40:26;;;;;;;12.85;5.65;;;;;;;8.59;100.00;99946.09;5087690;28;20023;-78
2021/12/01 01:42:52;;;;;;;14.77;6.53;;;;;;;8.60;100.00;99947.75;5086939;28;20157;-78
2021/12/01 01:45:17;;;;;;;14.45;6.00;;;;;;;8.60;100.00;99933.09;5088278;28;20031;-78
2021/12/01 01:48:01;;;;;;;15.70;6.38;;;;;;;8.59;100.00;99940.91;5081758;28;20454;-77
2021/12/01 01:50:35;;;;;;;18.43;7.03;;;;;;;8.52;100.00;99932.50;5079834;28;20528;-78
2021/12/01 01:53:04;;;;;;;18.77;7.78;;;;;;;8.50;100.00;99923.09;5086367;28;20028;-78
2021/12/01 01:55:29;;;;;;;19.02;7.15;;;;;;;8.50;100.00;99920.53;5080433;28;20024;-78
2021/12/01 01:57:55;;;;;;;17.13;7.05;;;;;;;8.48;100.00;99917.13;5086608;28;20076;-78
2021/12/01 02:00:20;;;;;;;16.60;7.53;;;;;;;8.45;100.00;99909.50;5072647;28;20030;-85
2021/12/01 02:02:46;;;;;;;16.40;7.07;;;;;;;8.42;100.00;99907.00;5083523;28;20144;-85
2021/12/01 02:05:12;;;;;;;19.40;7.38;;;;;;;8.43;100.00;99896.63;5068738;28;20032;-85
2021/12/01 02:07:37;;;;;;;15.38;7.20;;;;;;;8.40;100.00;99890.69;5071887;28;20044;-86
2021/12/01 02:10:04;;;;;;;15.50;6.57;;;;;;;8.40;100.00;99883.78;5073569;28;20065;-84
2021/12/01 02:12:29;;;;;;;16.15;5.68;;;;;;;8.37;100.00;99876.16;5083259;28;20019;-85
2021/12/01 02:14:56;;;;;;;17.15;7.18;;;;;;;8.35;100.00;99864.16;5081712;28;20017;-85
2021/12/01 02:17:21;;;;;;;13.43;6.53;;;;;;;8.34;100.00;99868.47;5069449;28;20424;-85
2021/12/01 02:19:46;;;;;;;12.38;6.13;;;;;;;8.30;100.00;99866.88;5082820;28;21832;-85
2021/12/01 02:22:13;;;;;;;14.60;6.82;;;;;;;8.27;100.00;99851.44;5068772;28;20029;-85
2021/12/01 02:24:38;;;;;;;12.52;6.07;;;;;;;8.27;100.00;99862.63;5075457;28;20090;-84
2021/12/01 02:27:04;;;;;;;14.88;6.20;;;;;;;8.24;100.00;99846.41;5079192;28;20033;-85
2021/12/01 02:29:29;;;;;;;12.10;5.57;;;;;;;8.22;100.00;99830.94;5078686;28;20382;-79
2021/12/01 02:31:54;;;;;;;12.50;6.07;;;;;;;8.22;100.00;99835.25;5072169;28;20048;-79
2021/12/01 02:34:24;;;;;;;10.80;5.80;;;;;;;8.17;100.00;99822.50;5069213;28;20056;-78
2021/12/01 02:36:54;;;;;;;17.25;6.13;;;;;;;8.14;100.00;99811.41;5070813;28;20529;-78
2021/12/01 02:39:20;;;;;;;12.63;6.07;;;;;;;8.14;100.00;99806.25;5089322;28;20032;-76
2021/12/01 02:41:52;;;;;;;10.48;4.65;;;;;;;8.19;100.00;99802.63;5078673;28;20397;-80
2021/12/01 02:44:17;;;;;;;9.90;5.03;;;;;;;8.10;100.00;99794.34;5084945;28;20346;-78
2021/12/01 02:46:43;;;;;;;12.35;4.90;;;;;;;8.06;100.00;99777.25;5080215;28;20273;-79
2021/12/01 02:49:10;;;;;;;10.43;5.00;;;;;;;8.07;100.00;99771.19;5089432;28;20030;-79
2021/12/01 02:51:37;;;;;;;11.73;5.00;;;;;;;8.05;100.00;99780.75;5086701;28;20028;-80
2021/12/01 02:54:04;;;;;;;10.18;4.95;;;;;;;8.03;100.00;99777.34;5078359;28;20032;-79
2021/12/01 02:56:32;;;;;;;9.55;5.05;;;;;;;8.02;100.00;99780.81;5075439;28;20017;-79
2021/12/01 02:58:59;;;;;;;9.50;4.75;;;;;;;8.00;100.00;99772.28;5068785;28;20266;-80
2021/12/01 03:01:26;;;;;;;8.20;4.40;;;;;;;8.02;100.00;99763.59;5071137;28;20028;-79
2021/12/01 03:03:52;;;;;;;8.25;4.35;;;;;;;7.94;100.00;99743.19;5081539;28;20375;-79
2021/12/01 03:06:20;;;;;;;8.52;4.22;;;;;;;7.98;100.00;99759.44;5080745;28;20031;-78
2021/12/01 03:08:46;;;;;;;10.68;4.65;;;;;;;7.89;100.00;99742.50;5071455;28;20031;-87
2021/12/01 03:11:13;;;;;;;9.75;4.78;;;;;;;8.09;100.00;99734.13;5086687;28;20019;-87
2021/12/01 03:13:39;;;;;;;9.48;4.97;;;;;;;7.92;100.00;99739.81;5080931;28;20032;-87
2021/12/01 03:16:05;;;;;;;12.38;5.97;;;;;;;7.85;100.00;99735.72;5074897;28;20021;-88
2021/12/01 03:18:30;;;;;;;11.43;5.30;;;;;;;7.90;100.00;99718.38;5085334;28;20032;-87
2021/12/01 03:20:56;;;;;;;12.32;5.13;;;;;;;7.84;100.00;99723.75;5075551;28;20040;-87
2021/12/01 03:23:23;;;;;;;12.10;5.32;;;;;;;7.85;100.00;99716.81;5092232;28;20028;-88
2021/12/01 03:25:49;;;;;;;10.48;5.43;;;;;;;7.83;100.00;99698.00;5090607;28;20152;-86
2021/12/01 03:28:15;;;;;;;12.95;5.90;;;;;;;7.81;100.00;99704.91;5082825;28;20393;-87
2021/12/01 03:30:41;;;;;;;11.68;5.75;;;;;;;7.77;100.00;99696.44;5075861;28;20032;-87
2021/12/01 03:33:13;;;;;;;13.68;5.45;;;;;;;7.77;100.00;99690.44;5079799;28;20025;-88
2021/12/01 03:35:40;;;;;;;14.27;6.53;;;;;;;7.75;100.00;99681.91;5081507;28;20394;-86
2021/12/01 03:38:06;;;;;;;10.75;5.10;;;;;;;7.75;100.00;99687.06;5091316;28;20031;-87
2021/12/01 03:40:32;;;;;;;15.73;6.72;;;;;;;7.70;100.00;99666.56;5087726;28;20365;-88
2021/12/01 03:42:58;;;;;;;14.23;6.25;;;;;;;7.71;100.00;99664.84;5084275;28;20359;-86
2021/12/01 03:45:23;;;;;;;14.63;6.22;;;;;;;7.67;100.00;99660.66;5082734;28;20027;-86
2021/12/01 03:47:49;;;;;;;12.75;6.05;;;;;;;7.68;100.00;99652.88;5086863;28;20077;-89
2021/12/01 03:50:14;;;;;;;13.23;6.20;;;;;;;7.66;100.00;99635.75;5080213;28;20061;-88
2021/12/01 03:52:40;;;;;;;12.45;6.00;;;;;;;7.65;100.00;99649.53;5091329;28;20028;-88
2021/12/01 03:55:07;;;;;;;12.48;5.78;;;;;;;7.70;100.00;99627.88;5090670;28;20393;-87
2021/12/01 03:57:33;;;;;;;12.48;5.93;;;;;;;7.60;100.00;99646.25;5089919;28;20039;-87
2021/12/01 03:59:58;;;;;;;11.88;5.60;;;;;;;7.63;100.00;99618.66;5082914;28;20024;-88
2021/12/01 04:02:24;;;;;;;14.02;6.43;;;;;;;7.59;100.00;99601.56;5087344;28;20035;-86
2021/12/01 04:04:49;;;;;;;12.02;6.20;;;;;;;7.62;100.00;99614.38;5076958;28;20051;-88
2021/12/01 04:07:14;;;;;;;12.43;5.82;;;;;;;7.66;100.00;99591.91;5091023;28;20063;-87
2021/12/01 04:09:42;;;;;;;14.05;6.20;;;;;;;7.58;100.00;99575.81;5090036;28;20309;-87
2021/12/01 04:12:08;;;;;;;10.68;5.20;;;;;;;7.55;100.00;99587.09;5086034;28;20410;-88
2021/12/01 04:14:33;;;;;;;13.45;6.38;;;;;;;7.54;100.00;99580.25;5079640;28;20502;-87
2021/12/01 04:16:59;;;;;;;15.25;6.57;;;;;;;7.53;100.00;99575.97;5077927;28;20027;-87
2021/12/01 04:19:24;;;;;;;13.93;6.35;;;;;;;7.55;100.00;99576.78;5088882;28;20486;-88
2021/12/01 04:21:50;;;;;;;15.13;6.88;;;;;;;7.50;100.00;99566.63;5075284;28;20052;-88
2021/12/01 04:24:15;;;;;;;17.35;7.32;;;;;;;7.50;100.00;99560.63;5073747;28;20028;-88
2021/12/01 04:26:41;;;;;;;15.13;6.80;;;;;;;7.48;100.00;99552.09;5085952;28;20052;-87
2021/12/01 04:29:07;;;;;;;14.82;6.80;;;;;;;7.46;100.00;99541.81;5071202;28;20143;-88
2021/12/01 04:31:37;;;;;;;11.20;5.05;;;;;;;7.50;100.00;99537.41;5080983;28;20039;-89
2021/12/01 04:34:03;;;;;;;12.02;5.78;;;;;;;7.48;100.00;99532.31;5073161;28;20024;-88
2021/12/01 04:36:33;;;;;;;11.48;6.03;;;;;;;7.46;100.00;99526.34;5080350;28;20043;-88
2021/12/01 04:39:01;;;;;;;11.80;5.78;;;;;;;7.43;100.00;99520.47;5071506;28;20024;-88
2021/12/01 04:41:30;;;;;;;12.07;5.40;;;;;;;7.46;100.00;99498.00;5072618;28;20036;-88
2021/12/01 04:43:55;;;;;;;13.13;5.60;;;;;;;7.41;100.00;99491.31;5072561;28;20086;-88
2021/12/01 04:46:21;;;;;;;14.82;5.45;;;;;;;7.40;100.00;99493.03;5070760;28;20024;-87
2021/12/01 04:48:47;;;;;;;10.57;5.60;;;;;;;7.42;100.00;99483.53;5089800;28;20040;-89
2021/12/01 04:51:13;;;;;;;10.75;5.25;;;;;;;7.40;100.00;99477.56;5071249;28;20067;-88
2021/12/01 04:53:38;;;;;;;12.07;5.15;;;;;;;7.36;100.00;99468.25;5076796;28;20123;-89
2021/12/01 04:56:05;;;;;;;11.70;5.20;;;;;;;7.35;100.00;99468.31;5072563;28;20032;-87
2021/12/01 04:58:31;;;;;;;11.35;5.15;;;;;;;7.35;100.00;99452.84;5073916;28;20290;-89
2021/12/01 05:01:00;;;;;;;11.20;4.85;;;;;;;7.35;100.00;99451.09;5074122;28;20028;-87
2021/12/01 05:03:26;;;;;;;9.05;4.32;;;;;;;7.33;100.00;99436.56;5084219;28;20090;-87
2021/12/01 05:05:51;;;;;;;8.32;4.75;;;;;;;7.36;100.00;99444.22;5081345;28;20037;-88
2021/12/01 05:08:18;;;;;;;8.50;5.05;;;;;;;7.30;100.00;99436.69;5074876;28;20075;-87
2021/12/01 05:10:43;;;;;;;11.15;5.35;;;;;;;7.27;100.00;99436.78;5087238;28;20402;-87
2021/12/01 05:13:09;;;;;;;11.13;5.10;;;;;;;7.28;100.00;99425.59;5081606;28;20478;-88
2021/12/01 05:15:34;;;;;;;9.98;4.80;;;;;;;7.28;100.00;99423.84;5077373;28;20032;-86
2021/12/01 05:18:00;;;;;;;10.23;4.35;;;;;;;7.23;100.00;99420.59;5088048;28;20032;-88
2021/12/01 05:20:25;;;;;;;8.97;4.37;;;;;;;7.22;100.00;99429.22;5073312;28;20178;-88
2021/12/01 05:22:50;;;;;;;8.95;4.70;;;;;;;7.19;100.00;99410.41;5074847;28;20294;-88
2021/12/01 05:25:16;;;;;;;8.85;4.60;;;;;;;7.23;100.00;99412.03;5081025;28;20024;-87
2021/12/01 05:27:41;;;;;;;9.65;4.75;;;;;;;7.19;100.00;99402.69;5088694;28;20366;-88
2021/12/01 05:30:06;;;;;;;9.20;5.10;;;;;;;7.20;100.00;99404.38;5073442;28;20038;-87
2021/12/01 05:32:32;;;;;;;11.18;4.63;;;;;;;7.19;100.00;99400.09;5072904;28;20024;-87
2021/12/01 05:34:58;;;;;;;10.65;5.15;;;;;;;7.16;100.00;99398.50;5077755;28;20020;-88
2021/12/01 05:37:24;;;;;;;9.07;4.88;;;;;;;7.19;100.00;99398.38;5075340;28;20051;-88
2021/12/01 05:39:49;;;;;;;9.05;5.10;;;;;;;7.15;100.00;99386.50;5074704;28;20037;-78
2021/12/01 05:42:16;;;;;;;8.75;4.40;;;;;;;7.18;100.00;99395.84;5068694;28;20211;-77
2021/12/01 05:44:42;;;;;;;7.78;4.40;;;;;;;7.12;100.00;99371.13;5090750;28;20103;-78
2021/12/01 05:47:08;;;;;;;6.93;3.72;;;;;;;7.14;100.00;99370.19;5083815;28;20490;-79
2021/12/01 05:49:33;;;;;;;9.48;4.38;;;;;;;7.13;100.00;99365.09;5089548;28;20035;-79
2021/12/01 05:51:59;;;;;;;8.68;4.15;;;;;;;7.12;100.00;99374.56;5087400;28;20094;-78
2021/12/01 05:54:25;;;;;;;7.53;4.03;;;;;;;7.12;100.00;99361.66;5087431;28;20361;-78
2021/12/01 05:56:51;;;;;;;9.60;4.35;;;;;;;7.10;100.00;99342.00;5080931;28;20140;-78
2021/12/01 05:59:16;;;;;;;6.43;3.25;;;;;;;7.10;100.00;99337.69;5071261;28;20097;-78
2021/12/01 06:01:41;;;;;;;6.20;3.67;;;;;;;7.09;100.00;99336.03;5076245;28;20031;-78
2021/12/01 06:04:07;;;;;;;7.40;3.50;;;;;;;7.09;100.00;99341.19;5075927;28;20031;-78
2021/12/01 06:06:32;;;;;;;7.72;4.25;;;;;;;7.08;100.00;99331.75;5084324;28;20047;-78
2021/12/01 06:08:57;;;;;;;6.53;3.00;;;;;;;7.12;100.00;99323.03;5083145;28;20043;-79
2021/12/01 06:11:23;;;;;;;5.18;3.13;;;;;;;7.11;100.00;99318.75;5080844;28;20024;-78
2021/12/01 06:13:51;;;;;;;6.60;3.88;;;;;;;7.07;100.00;99312.03;5086574;28;20012;-81
2021/12/01 06:16:24;;;;;;;6.30;3.10;;;;;;;7.08;100.00;99300.00;5075908;28;20029;-78
2021/12/01 06:18:51;;;;;;;4.47;2.20;;;;;;;7.06;100.00;99294.03;5074577;28;20032;-79
2021/12/01 06:21:17;;;;;;;4.45;2.40;;;;;;;7.08;100.00;99287.97;5078381;28;20073;-78
2021/12/01 06:23:43;;;;;;;5.40;2.97;;;;;;;7.05;100.00;99282.91;5075461;28;20024;-78
2021/12/01 06:26:08;;;;;;;5.35;2.60;;;;;;;7.09;100.00;99288.81;5075717;28;20036;-78
2021/12/01 06:28:34;;;;;;;5.72;2.90;;;;;;;7.07;100.00;99288.00;5077486;28;20139;-78
2021/12/01 06:30:59;;;;;;;5.13;2.80;;;;;;;7.06;100.00;99281.16;5074123;28;20109;-78
2021/12/01 06:33:24;;;;;;;4.88;2.70;;;;;;;7.08;100.00;99275.06;5076553;28;20178;-77
2021/12/01 06:35:51;;;;;;;5.10;3.05;;;;;;;7.10;100.00;99272.41;5088025;28;20028;-78
2021/12/01 06:38:18;;;;;;;5.40;2.72;;;;;;;7.09;100.00;99263.88;5080430;28;20028;-78
2021/12/01 06:40:45;;;;;;;4.60;2.78;;;;;;;7.11;100.00;99263.81;5084755;28;20410;-78
2021/12/01 06:43:10;;;;;;;4.05;2.55;;;;;;;7.14;100.00;99267.13;5086246;28;20035;-77
2021/12/01 06:45:36;;;;;;;5.82;2.97;;;;;;;7.13;100.00;99254.28;5078433;28;20032;-78
2021/12/01 06:48:01;;;;;;;5.03;2.72;;;;;;;7.10;100.00;99252.66;5073124;28;20039;-79
2021/12/01 06:50:26;;;;;;;5.65;2.97;;;;;;;7.10;100.00;99265.53;5078921;28;20032;-78
2021/12/01 06:52:52;;;;;;;6.95;3.30;;;;;;;7.11;100.00;99238.88;5077985;28;20020;-78
2021/12/01 06:55:20;;;;;;;4.32;2.47;;;;;;;7.12;100.00;99235.41;5077769;28;20024;-79
2021/12/01 06:57:45;;;;;;;5.43;2.97;;;;;;;7.18;100.00;99231.78;5070376;28;20079;-78
2021/12/01 07:00:13;;;;;;;6.22;3.15;;;;;;;7.20;100.00;99240.31;5076739;28;20457;-78
2021/12/01 07:02:38;;;;;;;5.68;2.92;;;;;;;7.18;100.00;99233.50;5084665;28;20612;-78
2021/12/01 07:05:04;;;;;;;7.47;4.00;;;;;;;7.18;100.00;99238.66;5076762;28;20036;-78
2021/12/01 07:07:29;;;;;;;6.90;3.22;;;;;;;7.19;100.00;99238.63;5076819;28;20529;-79
2021/12/01 07:09:55;;;;;;;7.05;3.35;;;;;;;7.21;100.00;99225.69;5078870;28;20020;-78
2021/12/01 07:12:21;;;;;;;8.10;3.78;;;;;;;7.21;100.00;99225.69;5074382;28;20016;-79
2021/12/01 07:14:56;;;;;;;7.15;3.53;;;;;;;7.18;100.00;99216.31;4721616;28;10000968;-78
2021/12/01 07:17:21;;;;;;;3.33;1.88;;;;;;;7.23;100.00;99214.44;4723717;28;10000863;-79
2021/12/01 07:19:48;;;;;;;8.68;3.92;;;;;;;7.23;100.00;99222.16;5071885;28;20041;-80
2021/12/01 07:22:14;;;;;;;7.43;3.80;;;;;;;7.26;100.00;99216.88;5076505;28;20111;-79
2021/12/01 07:24:40;;;;;;;8.80;4.03;;;;;;;7.29;100.00;99218.53;5074578;28;20021;-79
2021/12/01 07:27:05;;;;;;;7.80;3.80;;;;;;;7.28;100.00;99202.22;5069630;28;20034;-79
2021/12/01 07:29:31;;;;;;;7.47;3.55;;;;;;;7.32;100.00;99214.09;5076710;28;20031;-80
2021/12/01 07:31:56;;;;;;;6.15;3.35;;;;;;;7.35;100.00;99215.72;5069914;28;20020;-79
2021/12/01 07:34:22;;;;;;;9.38;4.30;;;;;;;7.37;100.00;99208.78;5072497;28;20082;-79
2021/12/01 07:36:47;;;;;;;8.25;4.20;;;;;;;7.34;100.00;99206.31;5067848;28;20083;-79
2021/12/01 07:39:13;;;;;;;9.80;4.30;;;;;;;7.38;100.00;99203.53;5076239;28;20037;-79
2021/12/01 07:41:38;;;;;;;10.00;4.65;;;;;;;7.40;100.00;99209.50;5066877;28;20060;-79
2021/12/01 07:44:04;;;;;;;10.30;4.20;;;;;;;7.39;100.00;99215.53;5066901;28;20024;-78
2021/12/01 07:46:29;;;;;;;9.85;4.22;;;;;;;7.43;100.00;99196.50;5070263;28;20146;-78
2021/12/01 07:48:54;;;;;;;9.73;4.57;;;;;;;7.43;100.00;99191.34;5074376;28;20020;-78
2021/12/01 07:51:20;;;;;;;9.32;4.18;;;;;;;7.46;100.00;99187.78;5079418;28;20345;-79
2021/12/01 07:53:45;;;;;;;10.40;4.45;;;;;;;7.47;100.00;99187.75;5079794;28;20036;-78
2021/12/01 07:56:10;;;;;;;11.38;4.80;;;;;;;7.49;100.00;99172.22;5082065;28;20029;-78
2021/12/01 07:58:35;;;;;;;12.65;4.75;;;;;;;7.52;100.00;99175.50;5078913;28;20024;-78
2021/12/01 08:01:01;;;;;;;10.47;4.73;;;;;;;7.55;100.00;99174.56;5088266;28;20039;-78
2021/12/01 08:03:26;;;;;;;11.30;4.80;;;;;;;7.55;100.00;99169.41;5081969;28;20368;-78
2021/12/01 08:05:52;;;;;;;9.35;4.20;;;;;;;7.59;100.00;99167.53;5085355;28;20027;-81
2021/12/01 08:08:17;;;;;;;12.35;5.13;;;;;;;7.60;100.00;99176.97;5079606;28;20410;-78
2021/12/01 08:10:42;;;;;;;9.85;4.00;;;;;;;7.64;100.00;99169.06;5079877;28;20161;-78
2021/12/01 08:13:09;;;;;;;11.63;4.57;;;;;;;7.63;100.00;99169.97;5083658;28;20016;-78
2021/12/01 08:15:36;;;;;;;11.30;4.65;;;;;;;7.66;100.00;99167.25;5079325;28;20035;-78
2021/12/01 08:18:01;;;;;;;15.07;5.10;;;;;;;7.70;100.00;99166.25;5074819;28;20028;-78
2021/12/01 08:20:27;;;;;;;9.73;4.75;;;;;;;7.68;100.00;99169.78;5072483;28;20181;-79
2021/12/01 08:22:54;;;;;;;10.90;4.60;;;;;;;7.66;100.00;99162.09;5075701;28;20487;-78
2021/12/01 08:25:19;;;;;;;10.48;4.47;;;;;;;7.71;100.00;99157.59;5080999;28;20027;-79
2021/12/01 08:27:44;;;;;;;10.40;4.47;;;;;;;7.72;100.00;99156.69;5083930;28;20028;-78
2021/12/01 08:30:10;;;;;;;10.98;4.72;;;;;;;7.71;100.00;99156.78;5082344;28;20082;-78
2021/12/01 08:32:36;;;;;;;9.25;4.63;;;;;;;7.79;100.00;99157.28;5072046;28;20048;-78
2021/12/01 08:35:02;;;;;;;10.15;4.60;;;;;;;7.75;100.00;99148.00;5086489;28;20403;-78
2021/12/01 08:37:28;;;;;;;9.63;4.88;;;;;;;7.72;100.00;99148.13;5079155;28;20459;-78
2021/12/01 08:39:53;;;;;;;10.77;4.93;;;;;;;7.73;100.00;99148.06;5074678;28;20031;-81
2021/12/01 08:42:20;;;;;;;12.77;4.85;;;;;;;7.74;100.00;99143.75;5082200;28;20445;-78
2021/12/01 08:44:50;;;;;;;11.57;5.32;;;;;;;7.76;100.00;99142.78;5090086;28;20032;-78
2021/12/01 08:47:17;;;;;;;12.10;5.30;;;;;;;7.79;100.00;99147.81;5079258;28;20450;-79
2021/12/01 08:49:44;;;;;;;10.63;5.18;;;;;;;7.84;100.00;99140.75;5072902;28;20020;-78
2021/12/01 08:52:10;;;;;;;12.10;5.47;;;;;;;7.90;100.00;99129.34;5076830;28;20134;-78
2021/12/01 08:54:35;;;;;;;15.70;6.03;;;;;;;7.97;100.00;99125.63;5085667;28;20437;-78
2021/12/01 08:57:01;;;;;;;11.32;5.32;;;;;;;8.01;100.00;99118.56;5077201;28;20104;-78
2021/12/01 08:59:26;;;;;;;13.02;5.05;;;;;;;8.05;100.00;99136.44;5075811;28;20580;-78
2021/12/01 09:01:51;;;;;;;10.52;5.20;;;;;;;8.12;100.00;99124.97;5069938;28;20031;-78
2021/12/01 09:04:19;;;;;;;10.40;4.95;;;;;;;8.25;100.00;99126.16;5074089;28;20068;-78
2021/12/01 09:06:44;;;;;;;8.68;4.07;;;;;;;8.24;100.00;99134.81;5072575;28;20368;-78
2021/12/01 09:09:17;;;;;;;11.95;4.57;;;;;;;8.23;100.00;99127.97;5072899;28;20486;-77
2021/12/01 09:11:43;;;;;;;9.38;4.25;;;;;;;8.15;100.00;99142.06;5078526;28;20516;-78
2021/12/01 09:14:08;;;;;;;8.25;4.43;;;;;;;8.12;100.00;99131.91;5090051;28;20583;-79
2021/12/01 09:16:33;;;;;;;10.57;4.70;;;;;;;8.03;100.00;99120.22;5080875;28;20103;-78
2021/12/01 09:19:00;;;;;;;10.30;4.75;;;;;;;8.01;100.00;99116.84;5084072;28;20174;-78
2021/12/01 09:21:26;;;;;;;9.30;4.60;;;;;;;8.01;100.00;99126.31;5079018;28;20036;-78
2021/12/01 09:23:51;;;;;;;11.10;4.90;;;;;;;7.99;100.00;99118.63;5084700;28;20024;-77
2021/12/01 09:26:16;;;;;;;9.75;4.80;;;;;;;7.94;100.00;99147.22;5079958;28;20085;-78
2021/12/01 09:28:42;;;;;;;8.35;4.45;;;;;;;7.93;100.00;99132.63;5071577;28;20048;-78
2021/12/01 09:31:08;;;;;;;10.18;4.88;;;;;;;7.97;100.00;99158.31;5084895;28;20031;-78
2021/12/01 09:33:33;;;;;;;11.38;5.03;;;;;;;7.96;100.00;99146.31;5074000;28;20028;-80
2021/12/01 09:35:58;;;;;;;11.10;4.70;;;;;;;7.94;100.00;99151.53;5075224;28;20028;-81
2021/12/01 09:38:23;;;;;;;10.02;4.57;;;;;;;7.94;100.00;99152.38;5080948;28;20289;-80
2021/12/01 09:40:52;;;;;;;12.48;5.07;;;;;;;7.91;100.00;99152.47;5079724;28;20098;-81
2021/12/01 09:43:22;;;;;;;15.00;6.45;;;;;;;7.92;100.00;99177.38;5077476;28;20085;-80
2021/12/01 09:45:48;;;;;;;14.15;6.80;;;;;;;7.93;100.00;99178.22;5079356;28;20427;-81
2021/12/01 09:48:13;;;;;;;16.40;6.60;;;;;;;7.89;100.00;99185.25;5080196;28;20062;-81
2021/12/01 09:50:39;;;;;;;12.00;5.28;;;;;;;7.85;100.00;99188.00;5076115;28;20106;-81
2021/12/01 09:53:06;;;;;;;9.60;3.55;;;;;;;7.76;100.00;99186.63;5071019;28;20036;-81
2021/12/01 09:55:32;;;;;;;9.27;3.00;;;;;;;7.66;100.00;99182.72;5079371;28;20056;-81
2021/12/01 09:58:02;;;;;;;7.47;1.92;;;;;;;7.54;100.00;99180.63;5080669;28;20575;-80
2021/12/01 10:00:29;;;;;;;7.88;2.10;;;;;;;7.43;100.00;99164.72;5077758;28;20270;-83
2021/12/01 10:02:55;;;;;;;8.02;1.95;;;;;;;7.36;100.00;99173.59;5074590;28;20069;-85
2021/12/01 10:05:52;;;;;;;8.55;2.08;;;;;;;7.32;100.00;99162.53;5070463;28;20315;-83
2021/12/01 10:08:18;;;;;;;8.82;2.75;;;;;;;7.30;100.00;99158.34;5068988;28;20040;-85
2021/12/01 10:10:44;;;;;;;10.07;2.90;;;;;;;7.29;100.00;99172.13;5080167;28;20076;-84
2021/12/01 10:13:09;;;;;;;9.60;2.60;;;;;;;7.41;100.00;99158.78;5076271;28;20021;-84
2021/12/01 10:15:35;;;;;;;9.73;2.40;;;;;;;7.47;100.00;99159.38;5075149;28;20055;-85
2021/12/01 10:18:14;;;;;;;9.70;2.50;;;;;;;7.51;100.00;99152.38;5073859;28;20061;-86
2021/12/01 10:20:42;;;;;;;11.95;2.50;;;;;;;7.41;100.00;99157.03;5074538;28;20028;-83
2021/12/01 10:23:14;;;;;;;12.13;2.45;;;;;;;7.31;100.00;99155.69;5078612;28;20032;-83
2021/12/01 10:25:40;;;;;;;11.90;2.38;;;;;;;7.31;100.00;99163.44;5074498;28;20074;-83
2021/12/01 10:28:29;;;;;;;10.25;2.15;;;;;;;7.39;100.00;99158.00;5069532;28;20391;-83
2021/12/01 10:30:54;;;;;;;8.75;2.20;;;;;;;7.48;100.00;99168.81;5070139;28;20082;-84
2021/12/01 10:33:20;;;;;;;10.50;2.22;;;;;;;7.53;100.00;99160.88;5069840;28;20096;-84
2021/12/01 10:35:45;;;;;;;12.13;1.70;;;;;;;7.53;100.00;99161.72;5084606;28;20050;-84
2021/12/01 10:38:13;;;;;;;4.80;1.48;;;;;;;7.52;100.00;99166.94;5078514;28;20363;-83
2021/12/01 10:40:40;;;;;;;10.90;1.90;;;;;;;7.51;100.00;99167.81;5070985;28;20028;-85
2021/12/01 10:43:14;;;;;;;9.57;2.17;;;;;;;7.45;100.00;99166.34;5072352;28;20038;-84
2021/12/01 10:45:41;;;;;;;;;;;;;;;7.47;100.00;99161.13;5075268;28;20078;-85
2021/12/01 10:48:09;;;;;;;15.02;2.30;;;;;;;7.63;100.00;99163.97;5076274;28;19909;-84
2021/12/01 10:50:39;;;;;;;10.02;1.77;;;;;;;7.71;100.00;99165.31;5074817;28;20104;-83
2021/12/01 10:53:09;;;;;;;8.93;1.73;;;;;;;7.68;100.00;99162.88;5080377;28;20024;-84
2021/12/01 10:55:44;;;;;;;8.55;1.60;;;;;;;7.66;100.00;99163.81;5088989;28;20084;-84
2021/12/01 10:58:10;;;;;;;10.75;1.60;;;;;;;7.59;100.00;99158.06;5087841;28;20024;-85
2021/12/01 11:00:41;;;;;;;7.30;1.40;;;;;;;7.54;100.00;99152.25;5081545;28;20035;-86
2021/12/01 11:03:09;;;;;;;5.53;1.17;;;;;;;7.54;100.00;99155.69;5078861;28;20020;-86
2021/12/01 11:05:41;;;;;;;6.50;1.40;;;;;;;7.54;100.00;99158.25;5075822;28;20148;-82
2021/12/01 11:08:12;;;;;;;7.28;1.42;;;;;;;7.45;100.00;99150.88;5074364;28;20044;-87
2021/12/01 11:10:37;;;;;;;5.80;1.75;;;;;;;7.34;99.12;99153.03;5075503;28;20112;-85
2021/12/01 11:13:04;;;;;;;4.80;1.30;;;;;;;7.21;100.00;99156.94;5075449;28;20043;-85
2021/12/01 11:15:31;;;;;;;6.47;1.60;;;;;;;7.20;100.00;99157.84;5073458;28;20136;-87
2021/12/01 11:17:58;;;;;;;10.68;1.80;;;;;;;7.26;100.00;99165.34;5068733;28;20604;-86
2021/12/01 11:20:37;;;;;;;4.93;1.52;;;;;;;7.25;99.49;99158.50;5074320;28;20028;-87
2021/12/01 11:23:10;;;;;;;5.10;1.70;;;;;;;7.24;99.90;99163.72;5081168;28;20124;-87
2021/12/01 11:25:37;;;;;;;8.32;1.77;;;;;;;7.21;100.00;99172.41;5083238;28;20074;-87
2021/12/01 11:28:04;;;;;;;8.55;1.90;;;;;;;7.29;100.00;99172.97;5088045;28;20043;-88
2021/12/01 11:30:30;;;;;;;4.95;2.38;;;;;;;7.40;100.00;99175.13;5080415;28;20085;-80